Time;durP1;ratioP1;P1;durP2;ratioP2;P2;SDS_P1;SDS_P2;PMS_P1;PMS_P2;Temp;Humidity;BMP_temperature;BMP_pressure;BME280_temperature;BME280_humidity;BME280_pressure;Samples;Min_cycle;Max_cycle;Signal;HPM_P1;HPM_P2
2023/10/10 00:00:49;;;;;;;11.00;5.00;;;;;;;;;;5050632;28;20048;-69
2023/10/10 00:03:17;;;;;;;9.63;5.18;;;;;;;;;;5050332;28;20102;-69
2023/10/10 00:05:45;;;;;;;8.38;4.32;;;;;;;;;;5050821;28;20056;-69
2023/10/10 00:08:11;;;;;;;6.70;4.60;;;;;;;;;;5049953;28;20132;-69
2023/10/10 00:10:49;;;;;;;8.75;4.75;;;;;;;;;;5050740;28;20047;-69
2023/10/10 00:13:17;;;;;;;9.20;4.65;;;;;;;;;;5048826;28;20052;-68
2023/10/10 00:16:02;;;;;;;7.82;4.40;;;;;;;;;;5050723;28;20441;-69
2023/10/10 00:18:29;;;;;;;8.02;4.53;;;;;;;;;;5043876;28;20126;-69
2023/10/10 00:21:20;;;;;;;8.05;4.55;;;;;;;;;;5054031;28;20101;-69
2023/10/10 00:23:48;;;;;;;8.75;4.65;;;;;;;;;;5053807;28;20473;-69
2023/10/10 00:26:15;;;;;;;7.95;4.43;;;;;;;;;;5054004;28;20049;-69
2023/10/10 00:28:45;;;;;;;8.38;4.20;;;;;;;;;;5054309;28;20052;-68
2023/10/10 00:31:17;;;;;;;8.90;6.03;;;;;;;;;;5054638;28;20060;-69
2023/10/10 00:33:45;;;;;;;7.43;4.28;;;;;;;;;;5054087;28;20041;-69
2023/10/10 00:36:20;;;;;;;7.88;4.38;;;;;;;;;;5053516;28;20047;-69
2023/10/10 00:38:49;;;;;;;7.05;3.83;;;;;;;;;;5053952;28;20133;-69
2023/10/10 00:41:16;;;;;;;8.25;4.13;;;;;;;;;;5052832;28;20053;-69
2023/10/10 00:43:44;;;;;;;9.38;4.55;;;;;;;;;;5053985;28;20519;-69
2023/10/10 00:46:11;;;;;;;10.13;4.43;;;;;;;;;;5053623;28;20053;-69
2023/10/10 00:48:39;;;;;;;7.00;4.18;;;;;;;;;;5053989;28;20084;-69
2023/10/10 00:51:10;;;;;;;8.27;4.22;;;;;;;;;;5053939;28;20052;-69
2023/10/10 00:53:39;;;;;;;9.77;4.82;;;;;;;;;;5053832;28;20128;-69
2023/10/10 00:56:07;;;;;;;8.55;4.07;;;;;;;;;;5053527;28;20454;-69
2023/10/10 00:58:37;;;;;;;6.22;3.92;;;;;;;;;;5053448;28;20044;-69
2023/10/10 01:01:09;;;;;;;9.18;4.40;;;;;;;;;;5053383;28;20044;-69
2023/10/10 01:03:37;;;;;;;7.68;3.95;;;;;;;;;;5053720;28;20053;-69
2023/10/10 01:06:07;;;;;;;7.50;4.28;;;;;;;;;;5053420;28;20044;-69
2023/10/10 01:08:55;;;;;;;6.90;3.90;;;;;;;;;;5052934;28;20063;-69
2023/10/10 01:11:23;;;;;;;6.60;3.97;;;;;;;;;;5052830;28;20052;-71
2023/10/10 01:13:52;;;;;;;7.50;3.95;;;;;;;;;;5053053;28;20417;-70
2023/10/10 01:16:25;;;;;;;6.82;4.20;;;;;;;;;;5052381;28;20154;-70
2023/10/10 01:18:57;;;;;;;7.05;4.00;;;;;;;;;;5053028;28;20079;-70
2023/10/10 01:21:30;;;;;;;7.88;4.28;;;;;;;;;;5053192;28;20045;-70
2023/10/10 01:24:06;;;;;;;9.48;4.00;;;;;;;;;;5052943;28;20501;-70
2023/10/10 01:26:37;;;;;;;9.68;4.22;;;;;;;;;;5047539;28;20467;-70
2023/10/10 01:29:14;;;;;;;6.32;4.00;;;;;;;;;;5052718;28;20493;-70
2023/10/10 01:31:42;;;;;;;7.15;4.10;;;;;;;;;;5052362;28;20405;-70
2023/10/10 01:34:09;;;;;;;7.93;4.00;;;;;;;;;;5052636;28;20045;-70
2023/10/10 01:36:38;;;;;;;7.05;3.90;;;;;;;;;;5052773;28;20191;-70
2023/10/10 01:39:24;;;;;;;6.97;4.07;;;;;;;;;;5052565;28;20048;-70
2023/10/10 01:41:51;;;;;;;6.43;3.55;;;;;;;;;;5053034;28;20362;-70
2023/10/10 01:44:22;;;;;;;9.63;4.40;;;;;;;;;;5052529;28;20041;-70
2023/10/10 01:46:50;;;;;;;8.65;4.28;;;;;;;;;;5052804;28;20127;-70
2023/10/10 01:49:20;;;;;;;7.22;3.90;;;;;;;;;;5050974;28;20059;-70
2023/10/10 01:51:54;;;;;;;7.25;4.57;;;;;;;;;;5052799;28;20076;-70
2023/10/10 01:54:21;;;;;;;7.30;4.10;;;;;;;;;;5052348;28;20049;-70
2023/10/10 01:56:51;;;;;;;7.43;3.92;;;;;;;;;;5052473;28;20099;-70
2023/10/10 01:59:19;;;;;;;8.07;4.20;;;;;;;;;;5050978;28;20472;-70
2023/10/10 02:01:47;;;;;;;6.32;3.88;;;;;;;;;;5052381;28;20053;-70
2023/10/10 02:04:14;;;;;;;6.47;4.10;;;;;;;;;;5052149;28;20421;-70
2023/10/10 02:06:45;;;;;;;8.02;4.00;;;;;;;;;;5052433;28;20062;-70
2023/10/10 02:09:26;;;;;;;7.72;4.22;;;;;;;;;;5052160;28;20136;-70
2023/10/10 02:11:54;;;;;;;7.28;4.70;;;;;;;;;;5052419;28;20071;-70
2023/10/10 02:14:25;;;;;;;9.32;4.25;;;;;;;;;;5052656;28;20464;-70
2023/10/10 02:16:54;;;;;;;7.97;4.68;;;;;;;;;;5052782;28;20504;-69
2023/10/10 02:19:26;;;;;;;7.88;4.85;;;;;;;;;;5051947;28;20497;-70
2023/10/10 02:22:03;;;;;;;9.63;4.53;;;;;;;;;;5052202;28;20106;-70
2023/10/10 02:24:40;;;;;;;6.57;4.05;;;;;;;;;;5051817;28;20481;-70
2023/10/10 02:27:06;;;;;;;6.28;4.07;;;;;;;;;;5051935;28;20041;-70
2023/10/10 02:29:37;;;;;;;7.88;4.32;;;;;;;;;;5051702;28;20052;-70
2023/10/10 02:32:12;;;;;;;6.93;3.95;;;;;;;;;;5051564;28;20447;-70
2023/10/10 02:34:42;;;;;;;9.05;4.10;;;;;;;;;;5051664;28;20045;-70
2023/10/10 02:37:41;;;;;;;6.32;3.80;;;;;;;;;;5051388;28;20099;-70
2023/10/10 02:40:14;;;;;;;7.43;4.55;;;;;;;;;;5051416;28;20041;-70
2023/10/10 02:42:49;;;;;;;8.38;4.78;;;;;;;;;;5050906;28;20114;-70
2023/10/10 02:45:17;;;;;;;7.55;4.28;;;;;;;;;;5051148;28;20045;-70
2023/10/10 02:47:46;;;;;;;7.72;4.47;;;;;;;;;;5051222;28;20059;-70
2023/10/10 02:50:15;;;;;;;11.07;4.38;;;;;;;;;;5051264;28;20139;-70
2023/10/10 02:52:45;;;;;;;8.60;4.32;;;;;;;;;;5051551;28;20041;-70
2023/10/10 02:55:14;;;;;;;7.53;3.88;;;;;;;;;;5051259;28;20521;-70
2023/10/10 02:57:41;;;;;;;7.97;4.70;;;;;;;;;;5050876;28;20077;-70
2023/10/10 03:00:27;;;;;;;7.75;4.30;;;;;;;;;;5051287;28;20045;-70
2023/10/10 03:02:54;;;;;;;9.70;4.93;;;;;;;;;;5051475;28;20084;-69
2023/10/10 03:05:38;;;;;;;8.23;4.38;;;;;;;;;;5051006;28;20053;-70
2023/10/10 03:08:12;;;;;;;10.55;4.70;;;;;;;;;;5050590;28;20493;-70
2023/10/10 03:10:41;;;;;;;8.68;4.43;;;;;;;;;;5051339;28;20049;-70
2023/10/10 03:13:27;;;;;;;8.25;4.25;;;;;;;;;;5050929;28;20481;-70
2023/10/10 03:15:56;;;;;;;7.30;4.57;;;;;;;;;;5051134;28;20049;-70
2023/10/10 03:18:29;;;;;;;7.93;5.22;;;;;;;;;;5050709;28;20433;-70
2023/10/10 03:21:12;;;;;;;8.68;4.18;;;;;;;;;;5050819;28;20057;-70
2023/10/10 03:23:52;;;;;;;6.80;4.13;;;;;;;;;;5045989;28;20056;-70
2023/10/10 03:26:32;;;;;;;7.70;4.22;;;;;;;;;;5050909;28;20489;-70
2023/10/10 03:29:10;;;;;;;8.10;4.60;;;;;;;;;;5050494;28;20091;-69
2023/10/10 03:31:42;;;;;;;9.07;4.55;;;;;;;;;;5051243;28;20049;-70
2023/10/10 03:34:19;;;;;;;10.67;4.50;;;;;;;;;;5050768;28;20072;-71
2023/10/10 03:37:04;;;;;;;9.20;4.88;;;;;;;;;;5050904;28;20429;-70
2023/10/10 03:39:42;;;;;;;11.32;4.50;;;;;;;;;;5050509;28;20132;-70
2023/10/10 05:23:47;;;;;;;10.90;5.30;;;;;;;;;;5053135;28;20052;-70
2023/10/10 05:26:15;;;;;;;9.60;5.05;;;;;;;;;;5053274;28;20497;-70
2023/10/10 05:28:45;;;;;;;8.38;4.68;;;;;;;;;;5053140;28;20051;-70
2023/10/10 05:31:12;;;;;;;9.20;4.70;;;;;;;;;;5053101;28;20456;-70
2023/10/10 05:33:38;;;;;;;8.13;5.03;;;;;;;;;;5053079;28;20051;-70
2023/10/10 05:36:07;;;;;;;9.60;4.97;;;;;;;;;;5052618;28;20041;-70
2023/10/10 05:38:39;;;;;;;8.80;5.25;;;;;;;;;;5052646;28;20048;-69
2023/10/10 05:41:06;;;;;;;9.98;5.72;;;;;;;;;;5053073;28;20052;-70
2023/10/10 05:43:34;;;;;;;9.65;4.70;;;;;;;;;;5052923;28;20057;-70
2023/10/10 05:46:03;;;;;;;8.00;4.55;;;;;;;;;;5052695;28;20048;-70
2023/10/10 05:48:31;;;;;;;10.13;5.18;;;;;;;;;;5046134;28;20041;-70
2023/10/10 05:50:58;;;;;;;8.50;5.13;;;;;;;;;;5052532;28;20083;-69
2023/10/10 05:53:25;;;;;;;11.20;5.07;;;;;;;;;;5052416;28;20246;-70
2023/10/10 05:55:58;;;;;;;9.10;5.50;;;;;;;;;;5052560;28;20421;-69
2023/10/10 05:58:25;;;;;;;9.98;4.53;;;;;;;;;;5052838;28;20455;-69
2023/10/10 06:00:53;;;;;;;8.50;4.60;;;;;;;;;;5052506;28;20048;-69
2023/10/10 06:03:21;;;;;;;8.75;4.88;;;;;;;;;;5052082;28;20045;-69
2023/10/10 06:05:49;;;;;;;9.27;5.22;;;;;;;;;;5052274;28;20045;-69
2023/10/10 06:08:16;;;;;;;7.68;4.55;;;;;;;;;;5052127;28;20443;-69
2023/10/10 06:10:44;;;;;;;9.70;5.10;;;;;;;;;;5052556;28;20059;-69
2023/10/10 06:13:11;;;;;;;8.48;5.20;;;;;;;;;;5051726;28;20073;-69
2023/10/10 06:15:38;;;;;;;17.73;5.60;;;;;;;;;;5052040;28;20052;-69
2023/10/10 06:18:15;;;;;;;11.90;5.50;;;;;;;;;;5051309;28;20045;-69
2023/10/10 06:20:47;;;;;;;8.52;5.50;;;;;;;;;;5052566;28;20049;-69
2023/10/10 06:23:17;;;;;;;8.88;5.28;;;;;;;;;;5051666;28;20049;-69
2023/10/10 06:25:45;;;;;;;10.75;5.13;;;;;;;;;;5052242;28;20057;-69
2023/10/10 06:28:24;;;;;;;7.32;4.65;;;;;;;;;;5051639;28;20509;-69
2023/10/10 06:30:53;;;;;;;9.70;4.95;;;;;;;;;;5051840;28;20091;-69
2023/10/10 06:33:27;;;;;;;8.48;4.45;;;;;;;;;;5051449;28;20049;-70
2023/10/10 06:36:06;;;;;;;10.25;4.80;;;;;;;;;;5052093;28;20505;-70
2023/10/10 06:38:33;;;;;;;8.55;4.93;;;;;;;;;;5051386;28;20056;-69
2023/10/10 06:41:11;;;;;;;10.25;4.95;;;;;;;;;;5052017;28;20141;-69
2023/10/10 06:43:39;;;;;;;11.40;5.78;;;;;;;;;;5046686;28;20128;-69
2023/10/10 06:46:15;;;;;;;7.28;4.53;;;;;;;;;;5051695;28;20519;-69
2023/10/10 06:48:43;;;;;;;9.65;5.00;;;;;;;;;;5051836;28;20056;-69
2023/10/10 06:51:10;;;;;;;7.53;4.55;;;;;;;;;;5051144;28;20515;-69
2023/10/10 06:53:37;;;;;;;8.77;4.93;;;;;;;;;;5051809;28;20438;-70
2023/10/10 06:56:15;;;;;;;8.60;4.75;;;;;;;;;;5051488;28;20053;-69
2023/10/10 06:58:45;;;;;;;8.63;4.50;;;;;;;;;;5051568;28;20140;-69
2023/10/10 07:01:12;;;;;;;9.18;5.05;;;;;;;;;;5051613;28;20053;-70
2023/10/10 07:03:46;;;;;;;9.75;5.05;;;;;;;;;;5051091;28;20045;-69
2023/10/10 07:06:13;;;;;;;9.82;5.65;;;;;;;;;;5050956;28;20369;-69
2023/10/10 07:08:39;;;;;;;9.25;4.88;;;;;;;;;;5051252;28;20045;-69
2023/10/10 07:11:09;;;;;;;12.77;7.85;;;;;;;;;;5051301;28;20053;-67
2023/10/10 07:13:39;;;;;;;15.95;11.77;;;;;;;;;;5051112;28;20057;-67
2023/10/10 07:16:08;;;;;;;14.85;8.10;;;;;;;;;;5050398;28;20045;-67
2023/10/10 07:18:35;;;;;;;14.15;7.00;;;;;;;;;;5050999;28;20562;-67
2023/10/10 07:21:30;;;;;;;13.82;7.35;;;;;;;;;;5051434;28;20055;-66
2023/10/10 07:24:13;;;;;;;10.77;6.18;;;;;;;;;;5050750;28;20103;-70
2023/10/10 07:26:42;;;;;;;12.32;6.25;;;;;;;;;;5045729;28;20080;-68
2023/10/10 07:32:16;;;;;;;10.32;6.82;;;;;;;;;;5078760;28;20384;-68
2023/10/10 07:34:42;;;;;;;12.00;6.28;;;;;;;;;;5055271;28;20045;-68
2023/10/10 07:37:14;;;;;;;12.25;6.30;;;;;;;;;;5056274;28;20498;-69
2023/10/10 07:39:55;;;;;;;14.35;7.15;;;;;;;;;;5057862;28;20120;-68
2023/10/10 07:42:27;;;;;;;17.08;6.40;;;;;;;;;;5050966;28;20625;-69
2023/10/10 07:44:54;;;;;;;12.60;7.50;;;;;;;;;;5066692;28;20045;-68
2023/10/10 07:47:26;;;;;;;11.20;6.50;;;;;;;;;;5060826;28;20135;-68
2023/10/10 07:49:53;;;;;;;13.85;7.13;;;;;;;;;;5054318;28;20230;-68
2023/10/10 07:52:21;;;;;;;12.27;6.45;;;;;;;;;;5056448;28;20523;-69
2023/10/10 07:54:51;;;;;;;10.65;6.63;;;;;;;;;;5061342;28;20572;-68
2023/10/10 07:57:22;;;;;;;14.50;6.80;;;;;;;;;;5050779;28;20102;-69
2023/10/10 07:59:49;;;;;;;13.55;6.93;;;;;;;;;;5055161;28;20072;-67
2023/10/10 08:02:25;;;;;;;10.45;6.93;;;;;;;;;;5057670;28;20048;-68
2023/10/10 08:04:54;;;;;;;13.77;6.88;;;;;;;;;;5047968;28;20315;-68
2023/10/10 08:07:45;;;;;;;10.00;6.28;;;;;;;;;;5057394;28;20155;-69
2023/10/10 08:10:29;;;;;;;11.98;6.50;;;;;;;;;;5058168;28;20574;-68
2023/10/10 08:12:57;;;;;;;9.05;5.78;;;;;;;;;;5064877;28;20128;-69
2023/10/10 08:15:25;;;;;;;11.50;5.82;;;;;;;;;;5066063;28;20052;-69
2023/10/10 08:17:58;;;;;;;9.45;5.68;;;;;;;;;;5064773;28;20045;-68
2023/10/10 08:23:12;;;;;;;9.82;5.35;;;;;;;;;;5036662;28;20517;-68
2023/10/10 08:25:38;;;;;;;11.25;5.72;;;;;;;;;;5047582;28;20409;-68
2023/10/10 08:28:05;;;;;;;9.43;5.38;;;;;;;;;;5055558;28;20045;-68
2023/10/10 08:30:33;;;;;;;10.23;5.50;;;;;;;;;;5055005;28;20489;-69
2023/10/10 08:33:02;;;;;;;8.85;5.40;;;;;;;;;;5057002;28;20060;-68
2023/10/10 08:35:38;;;;;;;11.27;5.57;;;;;;;;;;5061453;28;20068;-69
2023/10/10 08:38:05;;;;;;;9.18;5.72;;;;;;;;;;5047374;28;20049;-68
2023/10/10 08:40:34;;;;;;;10.05;5.57;;;;;;;;;;5054768;28;20060;-68
2023/10/10 08:43:04;;;;;;;10.60;5.43;;;;;;;;;;5045279;28;20045;-68
2023/10/10 08:45:39;;;;;;;10.30;5.07;;;;;;;;;;5038381;28;20055;-68
2023/10/10 08:48:12;;;;;;;8.05;5.05;;;;;;;;;;5042949;28;20049;-68
2023/10/10 08:50:41;;;;;;;8.40;5.43;;;;;;;;;;5042036;28;20046;-69
2023/10/10 08:53:10;;;;;;;13.68;5.30;;;;;;;;;;5033408;28;20072;-69
2023/10/10 08:55:38;;;;;;;11.07;5.85;;;;;;;;;;5043353;28;20497;-68
2023/10/10 08:58:09;;;;;;;9.48;6.40;;;;;;;;;;5041592;28;20128;-68
2023/10/10 09:00:37;;;;;;;9.77;5.97;;;;;;;;;;5047793;28;20054;-69
2023/10/10 09:03:07;;;;;;;12.85;6.30;;;;;;;;;;5040015;28;20041;-68
2023/10/10 09:05:34;;;;;;;11.95;5.75;;;;;;;;;;5034803;28;20053;-68
2023/10/10 09:08:14;;;;;;;9.38;5.88;;;;;;;;;;5035600;28;20045;-69
2023/10/10 09:10:41;;;;;;;10.88;5.90;;;;;;;;;;5038288;28;20056;-68
2023/10/10 09:13:09;;;;;;;10.20;6.40;;;;;;;;;;5035625;28;20045;-69
2023/10/10 09:15:40;;;;;;;10.90;6.00;;;;;;;;;;5038121;28;20048;-68
2023/10/10 09:18:16;;;;;;;11.23;6.22;;;;;;;;;;5043566;28;20132;-69
2023/10/10 09:20:44;;;;;;;12.15;5.82;;;;;;;;;;5044827;28;20049;-69
2023/10/10 09:23:22;;;;;;;12.45;6.13;;;;;;;;;;5036170;28;20046;-69
2023/10/10 09:25:57;;;;;;;11.02;6.40;;;;;;;;;;5038884;28;20046;-68
2023/10/10 09:28:30;;;;;;;10.45;6.45;;;;;;;;;;5041094;28;20159;-69
2023/10/10 09:31:03;;;;;;;12.35;6.13;;;;;;;;;;5041797;28;20402;-69
2023/10/10 09:33:33;;;;;;;11.15;6.20;;;;;;;;;;5048001;28;20068;-69
2023/10/10 09:36:08;;;;;;;12.35;5.97;;;;;;;;;;5034096;28;20081;-68
2023/10/10 09:38:43;;;;;;;14.52;6.47;;;;;;;;;;5038709;28;20436;-69
2023/10/10 09:41:14;;;;;;;13.82;6.50;;;;;;;;;;5041824;28;20131;-68
2023/10/10 09:44:00;;;;;;;10.52;6.00;;;;;;;;;;5037847;28;20045;-68
2023/10/10 09:46:36;;;;;;;14.25;5.55;;;;;;;;;;5032953;28;20471;-68
2023/10/10 09:49:28;;;;;;;14.43;6.22;;;;;;;;;;5041990;28;20088;-69
2023/10/10 09:54:44;;;;;;;10.18;5.97;;;;;;;;;;5032497;28;20056;-69
2023/10/10 09:57:13;;;;;;;12.15;5.38;;;;;;;;;;5034675;28;20060;-69
2023/10/10 09:59:42;;;;;;;14.15;5.70;;;;;;;;;;5044505;28;20040;-69
2023/10/10 10:02:14;;;;;;;14.50;5.97;;;;;;;;;;5041760;28;20425;-69
2023/10/10 10:04:44;;;;;;;12.02;6.07;;;;;;;;;;5039310;28;20045;-69
2023/10/10 10:07:56;;;;;;;14.40;6.55;;;;;;;;;;5052136;28;20048;-68
2023/10/10 10:10:46;;;;;;;13.32;6.10;;;;;;;;;;5043958;28;20548;-69
2023/10/10 10:13:37;;;;;;;13.65;6.18;;;;;;;;;;5033795;28;20053;-69
2023/10/10 10:16:19;;;;;;;11.52;5.93;;;;;;;;;;5042302;28;20397;-68
2023/10/10 10:18:52;;;;;;;14.13;6.68;;;;;;;;;;5038934;28;20128;-68
2023/10/10 10:21:27;;;;;;;14.55;6.30;;;;;;;;;;5046820;28;20049;-69
2023/10/10 10:24:14;;;;;;;12.57;6.38;;;;;;;;;;5049575;28;20073;-68
2023/10/10 10:26:44;;;;;;;12.57;6.38;;;;;;;;;;5028483;28;20510;-69
2023/10/10 10:29:28;;;;;;;15.35;6.20;;;;;;;;;;5047714;28;20045;-68
2023/10/10 10:32:00;;;;;;;9.25;5.72;;;;;;;;;;5042311;28;20057;-69
2023/10/10 10:34:32;;;;;;;12.63;6.47;;;;;;;;;;5048193;28;20052;-69
2023/10/10 10:37:06;;;;;;;11.35;5.80;;;;;;;;;;5035455;28;20494;-69
2023/10/10 10:39:35;;;;;;;12.10;5.90;;;;;;;;;;5039125;28;20494;-69
2023/10/10 10:42:11;;;;;;;13.93;5.80;;;;;;;;;;5048722;28;20115;-69
2023/10/10 10:44:55;;;;;;;9.00;5.03;;;;;;;;;;5038209;28;20056;-69
2023/10/10 10:47:45;;;;;;;12.93;5.40;;;;;;;;;;5031513;28;20132;-69
2023/10/10 10:50:28;;;;;;;17.15;5.07;;;;;;;;;;5043535;28;20061;-69
2023/10/10 10:52:59;;;;;;;10.38;5.05;;;;;;;;;;5036865;28;20053;-69
2023/10/10 10:55:28;;;;;;;8.45;4.93;;;;;;;;;;5043027;28;20045;-69
2023/10/10 10:58:05;;;;;;;7.35;4.57;;;;;;;;;;5042547;28;20049;-69
2023/10/10 11:03:23;;;;;;;8.82;4.15;;;;;;;;;;5032810;28;20045;-68
2023/10/10 11:05:53;;;;;;;8.38;4.70;;;;;;;;;;5032422;28;20050;-69
2023/10/10 11:08:50;;;;;;;12.20;4.43;;;;;;;;;;5044847;28;20300;-69
2023/10/10 11:11:23;;;;;;;7.82;4.05;;;;;;;;;;5030199;28;20045;-69
2023/10/10 11:13:51;;;;;;;12.63;4.68;;;;;;;;;;5034845;28;20064;-69
2023/10/10 11:16:21;;;;;;;9.90;4.50;;;;;;;;;;5030683;28;20041;-70
2023/10/10 11:18:57;;;;;;;9.00;4.53;;;;;;;;;;5043491;28;20052;-70
2023/10/10 11:21:27;;;;;;;8.27;4.50;;;;;;;;;;5039409;28;20111;-69
2023/10/10 11:23:57;;;;;;;8.52;4.90;;;;;;;;;;5038238;28;20056;-69
2023/10/10 11:26:24;;;;;;;9.30;4.20;;;;;;;;;;5036873;28;20057;-68
2023/10/10 11:28:59;;;;;;;7.40;4.63;;;;;;;;;;5031389;28;20075;-67
2023/10/10 11:31:35;;;;;;;8.75;4.43;;;;;;;;;;5040412;28;20507;-67
2023/10/10 11:34:26;;;;;;;8.60;4.60;;;;;;;;;;5049154;28;20497;-68
2023/10/10 11:37:13;;;;;;;9.93;4.80;;;;;;;;;;5028475;28;20562;-68
2023/10/10 11:39:47;;;;;;;9.80;5.15;;;;;;;;;;5036865;28;20099;-67
2023/10/10 11:42:26;;;;;;;9.70;4.47;;;;;;;;;;5038962;28;20132;-67
2023/10/10 11:45:01;;;;;;;12.48;5.50;;;;;;;;;;5032245;28;20050;-67
2023/10/10 11:47:27;;;;;;;8.63;4.88;;;;;;;;;;5030645;28;20045;-67
2023/10/10 11:50:01;;;;;;;9.18;5.25;;;;;;;;;;5030444;28;20137;-68
2023/10/10 11:52:28;;;;;;;9.57;4.70;;;;;;;;;;5034835;28;20049;-68
2023/10/10 11:54:58;;;;;;;13.77;4.63;;;;;;;;;;5040961;28;20057;-68
2023/10/10 11:57:28;;;;;;;8.93;4.35;;;;;;;;;;5034080;28;20052;-68
2023/10/10 11:59:58;;;;;;;9.85;4.75;;;;;;;;;;5041776;28;20041;-66
2023/10/10 12:02:30;;;;;;;8.18;4.70;;;;;;;;;;5030346;28;20057;-68
2023/10/10 12:05:14;;;;;;;8.65;4.38;;;;;;;;;;5034755;28;20095;-68
2023/10/10 12:07:41;;;;;;;8.90;4.67;;;;;;;;;;5025577;28;20111;-68
2023/10/10 12:10:08;;;;;;;9.57;4.75;;;;;;;;;;5038174;28;20071;-68
2023/10/10 12:12:34;;;;;;;10.65;4.50;;;;;;;;;;5035089;28;20053;-68
2023/10/10 12:15:03;;;;;;;11.43;4.82;;;;;;;;;;5038651;28;20052;-68
2023/10/10 12:17:29;;;;;;;8.13;4.95;;;;;;;;;;5030810;28;20056;-67
2023/10/10 12:19:56;;;;;;;10.23;4.82;;;;;;;;;;5034045;28;20048;-67
2023/10/10 12:22:24;;;;;;;10.45;4.85;;;;;;;;;;5047597;28;20151;-67
2023/10/10 12:24:54;;;;;;;8.63;4.82;;;;;;;;;;5039600;28;20059;-68
2023/10/10 12:27:29;;;;;;;8.40;4.50;;;;;;;;;;5033486;28;20049;-68
2023/10/10 12:29:56;;;;;;;9.60;4.70;;;;;;;;;;5032939;28;20513;-68
2023/10/10 12:32:26;;;;;;;9.60;4.28;;;;;;;;;;5032439;28;20672;-68
2023/10/10 12:34:53;;;;;;;8.23;4.45;;;;;;;;;;5033803;28;20498;-67
2023/10/10 12:37:23;;;;;;;10.02;4.65;;;;;;;;;;5032566;28;20045;-68
2023/10/10 12:39:51;;;;;;;8.40;4.60;;;;;;;;;;5040617;28;20057;-68
2023/10/10 12:42:17;;;;;;;10.82;4.50;;;;;;;;;;5043106;28;20524;-68
2023/10/10 12:44:47;;;;;;;9.30;4.63;;;;;;;;;;5044666;28;20049;-68
2023/10/10 12:47:17;;;;;;;11.35;4.53;;;;;;;;;;5049358;28;20081;-68
2023/10/10 12:49:45;;;;;;;11.23;4.38;;;;;;;;;;5050773;28;20132;-68
2023/10/10 12:52:16;;;;;;;6.15;3.85;;;;;;;;;;5036536;28;20088;-68
2023/10/10 12:54:46;;;;;;;9.70;4.13;;;;;;;;;;5052266;28;20243;-67
2023/10/10 12:57:14;;;;;;;9.32;4.18;;;;;;;;;;5034895;28;20494;-68
2023/10/10 12:59:46;;;;;;;9.73;4.10;;;;;;;;;;5043753;28;20052;-68
2023/10/10 13:02:16;;;;;;;7.25;4.60;;;;;;;;;;5043361;28;20084;-68
2023/10/10 13:04:51;;;;;;;9.00;4.30;;;;;;;;;;5045380;28;20478;-70
2023/10/10 13:07:18;;;;;;;11.07;4.85;;;;;;;;;;5032986;28;20065;-67
2023/10/10 13:09:46;;;;;;;10.07;4.13;;;;;;;;;;5045899;28;20073;-68
2023/10/10 13:12:27;;;;;;;9.07;4.43;;;;;;;;;;5042726;28;20110;-68
2023/10/10 13:15:06;;;;;;;8.65;4.03;;;;;;;;;;5038882;28;20049;-68
2023/10/10 13:17:49;;;;;;;7.15;3.85;;;;;;;;;;5027179;28;20045;-68
2023/10/10 13:20:18;;;;;;;10.32;4.68;;;;;;;;;;5048671;28;20103;-69
2023/10/10 13:22:50;;;;;;;9.10;4.65;;;;;;;;;;5037712;28;20355;-68
2023/10/10 13:25:17;;;;;;;7.35;4.80;;;;;;;;;;5040755;28;20049;-68
2023/10/10 13:27:45;;;;;;;11.77;4.25;;;;;;;;;;5044766;28;20052;-68
2023/10/10 13:30:13;;;;;;;9.15;4.60;;;;;;;;;;5031453;28;20056;-69
2023/10/10 13:32:41;;;;;;;13.32;4.93;;;;;;;;;;5033593;28;20053;-67
2023/10/10 13:35:09;;;;;;;8.68;4.78;;;;;;;;;;5035602;28;20073;-68
2023/10/10 13:37:41;;;;;;;10.98;4.28;;;;;;;;;;5041893;28;20053;-68
2023/10/10 13:40:07;;;;;;;;;;;;;;;;;;5043520;28;20053;-69
2023/10/10 13:42:40;;;;;;;10.82;4.78;;;;;;;;;;5039722;28;19928;-68
2023/10/10 13:45:11;;;;;;;11.15;5.05;;;;;;;;;;5033467;28;20049;-68
2023/10/10 13:47:40;;;;;;;7.85;4.65;;;;;;;;;;5049645;28;20110;-68
2023/10/10 13:50:28;;;;;;;9.70;4.97;;;;;;;;;;5050009;28;20049;-69
2023/10/10 13:52:56;;;;;;;10.48;4.47;;;;;;;;;;5032938;28;20064;-67
2023/10/10 13:55:32;;;;;;;13.48;5.07;;;;;;;;;;5042905;28;20416;-69
2023/10/10 13:57:58;;;;;;;9.30;4.70;;;;;;;;;;5035111;28;20045;-68
2023/10/10 14:00:33;;;;;;;8.63;4.30;;;;;;;;;;5050292;28;20045;-68
2023/10/10 14:03:03;;;;;;;9.02;3.83;;;;;;;;;;5031353;28;20056;-68
2023/10/10 14:05:32;;;;;;;13.32;4.60;;;;;;;;;;5025403;28;20509;-68
2023/10/10 14:08:03;;;;;;;11.25;4.47;;;;;;;;;;5039229;28;20072;-70
2023/10/10 14:10:36;;;;;;;11.07;4.60;;;;;;;;;;5037843;28;20140;-67
2023/10/10 14:13:18;;;;;;;8.45;4.35;;;;;;;;;;5043899;28;20053;-67
2023/10/10 14:15:56;;;;;;;8.32;4.55;;;;;;;;;;5041971;28;20059;-69
2023/10/10 14:18:26;;;;;;;13.88;5.05;;;;;;;;;;5039333;28;20049;-70
2023/10/10 14:20:53;;;;;;;7.72;4.50;;;;;;;;;;5048709;28;20052;-70
2023/10/10 14:23:22;;;;;;;10.85;5.25;;;;;;;;;;5045942;28;20041;-70
2023/10/10 14:25:50;;;;;;;9.40;4.72;;;;;;;;;;5050076;28;20064;-70
2023/10/10 14:28:18;;;;;;;9.15;4.28;;;;;;;;;;5051156;28;20487;-70
2023/10/10 14:30:48;;;;;;;10.10;5.00;;;;;;;;;;5044549;28;20056;-69
2023/10/10 14:33:15;;;;;;;9.95;4.88;;;;;;;;;;5044352;28;20055;-70
2023/10/10 14:35:43;;;;;;;8.68;4.35;;;;;;;;;;5041622;28;20142;-69
2023/10/10 14:38:14;;;;;;;10.48;4.72;;;;;;;;;;5048151;28;20131;-70
2023/10/10 14:40:43;;;;;;;11.40;4.72;;;;;;;;;;5049758;28;20045;-69
2023/10/10 14:43:10;;;;;;;7.93;4.70;;;;;;;;;;5048383;28;20045;-69
2023/10/10 14:45:42;;;;;;;10.75;4.85;;;;;;;;;;5044430;28;20476;-69
2023/10/10 14:48:09;;;;;;;;;;;;;;;;;;5048564;28;20052;-69
2023/10/10 14:50:39;;;;;;;10.18;4.80;;;;;;;;;;5049659;28;19925;-68
2023/10/10 14:53:08;;;;;;;9.77;4.75;;;;;;;;;;5048114;28;20049;-71
2023/10/10 14:55:39;;;;;;;10.07;4.82;;;;;;;;;;5045201;28;20049;-69
2023/10/10 14:58:09;;;;;;;7.85;4.25;;;;;;;;;;5045603;28;20048;-69
2023/10/10 15:00:39;;;;;;;11.57;4.45;;;;;;;;;;5047718;28;20049;-69
2023/10/10 15:03:12;;;;;;;8.25;4.05;;;;;;;;;;5044874;28;20037;-69
2023/10/10 15:05:46;;;;;;;7.45;4.40;;;;;;;;;;5049297;28;20468;-70
2023/10/10 15:08:13;;;;;;;8.27;4.28;;;;;;;;;;5050295;28;20056;-69
2023/10/10 15:10:40;;;;;;;10.50;4.53;;;;;;;;;;5043919;28;20050;-69
2023/10/10 15:13:11;;;;;;;7.97;4.38;;;;;;;;;;5044264;28;20049;-69
2023/10/10 15:15:40;;;;;;;8.25;4.63;;;;;;;;;;5044209;28;20042;-70
2023/10/10 15:18:07;;;;;;;9.00;4.57;;;;;;;;;;5046107;28;20130;-69
2023/10/10 15:20:33;;;;;;;10.40;4.88;;;;;;;;;;5050235;28;20066;-69
2023/10/10 15:23:00;;;;;;;7.60;4.72;;;;;;;;;;5048512;28;20067;-69
2023/10/10 15:25:26;;;;;;;12.75;5.68;;;;;;;;;;5041847;28;20045;-70
2023/10/10 15:27:54;;;;;;;9.98;4.68;;;;;;;;;;5047063;28;20051;-69
2023/10/10 15:30:23;;;;;;;9.73;4.82;;;;;;;;;;5048466;28;20457;-68
2023/10/10 15:32:56;;;;;;;9.85;4.72;;;;;;;;;;5048328;28;20102;-69
2023/10/10 15:35:23;;;;;;;10.93;4.95;;;;;;;;;;5044052;28;20049;-68
2023/10/10 15:37:52;;;;;;;10.82;4.55;;;;;;;;;;5046248;28;20131;-68
2023/10/10 15:40:21;;;;;;;11.45;5.05;;;;;;;;;;5038178;28;20126;-68
2023/10/10 15:42:49;;;;;;;10.70;4.68;;;;;;;;;;5048221;28;20049;-69
2023/10/10 15:45:20;;;;;;;11.48;4.55;;;;;;;;;;5048558;28;20508;-69
2023/10/10 15:47:49;;;;;;;11.48;4.70;;;;;;;;;;5047097;28;20527;-69
2023/10/10 15:50:17;;;;;;;13.38;4.68;;;;;;;;;;5047780;28;20045;-69
2023/10/10 15:52:48;;;;;;;11.13;4.53;;;;;;;;;;5049367;28;20073;-69
2023/10/10 15:55:19;;;;;;;14.32;4.75;;;;;;;;;;5044937;28;20077;-68
2023/10/10 15:57:46;;;;;;;11.65;4.90;;;;;;;;;;5050261;28;20076;-68
2023/10/10 16:00:15;;;;;;;11.35;5.10;;;;;;;;;;5044493;28;20496;-69
2023/10/10 16:02:42;;;;;;;11.00;4.75;;;;;;;;;;5053007;28;20041;-68
2023/10/10 16:05:15;;;;;;;11.07;4.90;;;;;;;;;;5052501;28;20076;-68
2023/10/10 16:07:45;;;;;;;11.25;4.95;;;;;;;;;;5051458;28;20563;-69
2023/10/10 16:10:11;;;;;;;11.82;4.60;;;;;;;;;;5052941;28;20041;-68
2023/10/10 16:12:38;;;;;;;10.75;4.75;;;;;;;;;;5052967;28;20049;-68
2023/10/10 16:15:06;;;;;;;9.95;4.70;;;;;;;;;;5051452;28;20048;-68
2023/10/10 16:17:33;;;;;;;10.68;4.75;;;;;;;;;;5051255;28;20059;-68
2023/10/10 16:20:00;;;;;;;11.88;4.80;;;;;;;;;;5052575;28;20048;-68
2023/10/10 16:22:28;;;;;;;11.57;4.80;;;;;;;;;;5051364;28;20041;-68
2023/10/10 16:24:54;;;;;;;10.93;5.43;;;;;;;;;;5051305;28;20045;-67
2023/10/10 16:27:21;;;;;;;13.48;5.60;;;;;;;;;;5052681;28;20063;-68
2023/10/10 16:29:48;;;;;;;10.85;5.32;;;;;;;;;;5053331;28;20051;-68
2023/10/10 16:32:17;;;;;;;9.20;4.90;;;;;;;;;;5051030;28;20053;-68
2023/10/10 16:34:44;;;;;;;11.88;5.57;;;;;;;;;;5052386;28;20060;-68
2023/10/10 16:37:13;;;;;;;14.05;5.47;;;;;;;;;;5049765;28;20416;-68
2023/10/10 16:39:44;;;;;;;9.02;5.30;;;;;;;;;;5052371;28;20107;-68
2023/10/10 16:42:10;;;;;;;7.97;5.30;;;;;;;;;;5052209;28;20052;-68
2023/10/10 16:44:37;;;;;;;12.68;5.43;;;;;;;;;;5053473;28;20053;-68
2023/10/10 16:47:04;;;;;;;10.05;5.30;;;;;;;;;;5050419;28;20508;-68
2023/10/10 16:49:30;;;;;;;13.02;5.53;;;;;;;;;;5045435;28;20389;-68
2023/10/10 16:51:57;;;;;;;10.20;5.20;;;;;;;;;;5050383;28;20041;-68
2023/10/10 16:54:24;;;;;;;16.45;5.97;;;;;;;;;;5051171;28;20068;-68
2023/10/10 16:56:57;;;;;;;11.15;5.72;;;;;;;;;;5051943;28;20049;-68